Terminal Aerodrome Forecast
Issued by NWS

Home | Current Version | Previous Version | Text Only | Print | Product List | Glossary On
Versions: 1 2 3 4 5 6 7 8 9 10 11 12 13
419
FTUS44 KEPZ 292320
TAFDMN
TAF
KDMN 292320Z 3000/3024 28022G32KT P6SM SCT090 SCT130
     FM300300 29008KT P6SM FEW130
     FM301200 25009KT P6SM SCT130
     FM301800 26014G24KT P6SM FEW090 SCT130=

USA.gov is the U.S. government's official web portal to all federal, state and local government web resources and services.